createdAt,value
2019-03-08T00:01:59.953Z,28.70
2019-03-08T00:04:28.948Z,28.60
2019-03-08T00:06:57.804Z,28.50
2019-03-08T00:09:26.760Z,27.90
2019-03-08T00:11:55.824Z,27.90
2019-03-08T00:14:24.727Z,28.00
2019-03-08T00:16:53.684Z,28.00
2019-03-08T00:19:22.788Z,28.00
2019-03-08T00:21:51.804Z,27.90
2019-03-08T00:24:20.855Z,28.00
2019-03-08T00:26:49.905Z,28.00
2019-03-08T00:29:19.484Z,28.10
2019-03-08T00:31:48.412Z,28.00
2019-03-08T00:34:17.308Z,28.00
2019-03-08T00:36:46.290Z,27.30
2019-03-08T00:39:15.452Z,26.70
2019-03-08T00:41:44.766Z,27.10
2019-03-08T00:44:14.249Z,26.50
2019-03-08T00:46:43.170Z,27.00
2019-03-08T00:49:12.153Z,28.10
2019-03-08T00:51:41.176Z,28.40
2019-03-08T00:54:10.085Z,27.90
2019-03-08T00:56:39.735Z,28.10
2019-03-08T00:59:09.166Z,28.60
2019-03-08T01:01:38.216Z,29.60
2019-03-08T01:04:07.403Z,30.00
2019-03-08T01:06:36.364Z,30.50
2019-03-08T01:09:06.848Z,30.40
2019-03-08T01:11:36.469Z,30.00
2019-03-08T01:14:05.452Z,29.80
2019-03-08T01:16:34.544Z,29.80
2019-03-08T01:19:03.700Z,29.60
2019-03-08T01:21:32.591Z,29.40
2019-03-08T01:24:01.598Z,29.60
2019-03-08T01:26:30.748Z,29.40
2019-03-08T01:28:59.756Z,29.20
2019-03-08T01:31:28.748Z,29.40
2019-03-08T01:33:57.745Z,29.70
2019-03-08T01:36:26.720Z,29.30
2019-03-08T01:38:55.644Z,29.60
2019-03-08T01:41:24.534Z,29.40
2019-03-08T01:43:53.437Z,29.30
2019-03-08T01:46:22.208Z,29.70
2019-03-08T01:48:51.214Z,29.80
2019-03-08T01:51:20.209Z,29.90
2019-03-08T01:53:49.120Z,29.60
2019-03-08T01:56:17.923Z,29.80
2019-03-08T01:58:46.901Z,29.20
2019-03-08T02:01:15.911Z,29.30
2019-03-08T02:03:44.779Z,29.20
2019-03-08T02:06:13.832Z,29.30
2019-03-08T02:08:43.411Z,29.30
2019-03-08T02:11:12.337Z,29.30
2019-03-08T02:13:41.208Z,29.40
2019-03-08T02:16:10.092Z,29.90
2019-03-08T02:18:39.086Z,30.00
2019-03-08T02:21:08.048Z,29.90
2019-03-08T02:23:37.484Z,29.90
2019-03-08T02:26:06.472Z,30.00
2019-03-08T02:28:35.404Z,29.70
2019-03-08T02:31:04.556Z,29.40
2019-03-08T02:33:33.517Z,29.40
2019-03-08T02:36:02.484Z,29.00
2019-03-08T02:38:31.497Z,29.30
2019-03-08T02:41:00.309Z,29.60
2019-03-08T02:43:29.656Z,29.10
2019-03-08T02:45:58.806Z,29.00
2019-03-08T02:48:27.601Z,28.80
2019-03-08T02:50:56.544Z,28.60
2019-03-08T02:53:25.521Z,27.90
2019-03-08T02:55:54.402Z,27.70
2019-03-08T02:58:23.320Z,27.90
2019-03-08T03:00:52.227Z,28.10
2019-03-08T03:03:21.036Z,27.70
2019-03-08T03:05:50.492Z,27.70
2019-03-08T03:08:19.740Z,27.80
2019-03-08T03:10:48.624Z,27.70
2019-03-08T03:13:17.584Z,27.20
2019-03-08T03:15:46.480Z,27.70
2019-03-08T03:18:15.396Z,27.40
2019-03-08T03:20:44.296Z,27.70
2019-03-08T03:23:13.328Z,26.60
2019-03-08T03:25:42.355Z,27.00
2019-03-08T03:28:11.228Z,27.30
2019-03-08T03:30:40.194Z,26.60
2019-03-08T03:33:09.112Z,26.80
2019-03-08T03:35:38.094Z,26.80
2019-03-08T03:38:07.024Z,26.90
2019-03-08T03:40:35.864Z,26.90
2019-03-08T03:43:04.989Z,26.60
2019-03-08T03:45:33.996Z,26.70
2019-03-08T03:48:03.312Z,26.20
2019-03-08T03:50:32.200Z,25.90
2019-03-08T03:53:01.024Z,25.90
2019-03-08T03:55:30.513Z,25.70
2019-03-08T03:57:59.409Z,26.00
2019-03-08T04:00:28.388Z,26.10
2019-03-08T04:02:57.458Z,25.70
2019-03-08T04:05:26.258Z,25.10
2019-03-08T04:07:55.357Z,25.50
2019-03-08T04:10:24.328Z,25.40
2019-03-08T04:12:53.256Z,25.30
2019-03-08T04:15:22.784Z,25.50
2019-03-08T04:17:51.897Z,25.70
2019-03-08T04:20:21.200Z,25.80
2019-03-08T04:22:50.409Z,25.90
2019-03-08T04:25:19.360Z,26.00
2019-03-08T04:27:48.343Z,26.20
2019-03-08T04:30:17.342Z,25.80
2019-03-08T04:32:46.516Z,25.90
2019-03-08T04:35:15.472Z,26.10
2019-03-08T04:37:44.852Z,25.90
2019-03-08T04:40:14.184Z,25.60
2019-03-08T04:42:43.158Z,25.50
2019-03-08T04:45:13.075Z,25.20
2019-03-08T04:47:42.132Z,25.50
2019-03-08T04:50:12.135Z,25.30
2019-03-08T04:52:41.064Z,25.10
2019-03-08T04:55:12.055Z,25.20
2019-03-08T04:57:41.112Z,25.30
2019-03-08T05:00:11.253Z,25.40
2019-03-08T05:02:40.589Z,25.60
2019-03-08T05:05:09.563Z,25.50
2019-03-08T05:07:38.549Z,25.60
2019-03-08T05:10:09.521Z,26.30
2019-03-08T05:12:38.747Z,25.70
2019-03-08T05:15:07.767Z,25.90
2019-03-08T05:17:36.732Z,25.80
2019-03-08T05:20:06.160Z,25.50
2019-03-08T05:22:35.058Z,25.70
2019-03-08T05:25:04.524Z,25.60
2019-03-08T05:27:33.587Z,25.60
2019-03-08T05:30:02.547Z,25.70
2019-03-08T05:32:31.734Z,25.50
2019-03-08T05:35:00.712Z,25.20
2019-03-08T05:37:29.736Z,25.50
2019-03-08T05:39:58.689Z,25.00
2019-03-08T05:42:28.113Z,25.30
2019-03-08T05:44:56.967Z,25.30
2019-03-08T05:47:26.006Z,24.50
2019-03-08T05:49:54.975Z,24.80
2019-03-08T05:52:24.111Z,24.20
2019-03-08T05:54:53.060Z,24.40
2019-03-08T05:57:22.504Z,24.60
2019-03-08T05:59:51.688Z,24.50
2019-03-08T06:02:20.583Z,24.10
2019-03-08T06:04:49.475Z,23.90
2019-03-08T06:07:18.373Z,24.00
2019-03-08T06:09:47.276Z,23.80
2019-03-08T06:12:16.501Z,23.70
2019-03-08T06:14:45.420Z,23.90
2019-03-08T06:17:14.308Z,23.60
2019-03-08T06:19:43.224Z,23.60
2019-03-08T06:22:12.128Z,23.60
2019-03-08T06:24:41.017Z,23.60
2019-03-08T06:27:10.464Z,23.60
2019-03-08T06:29:39.296Z,23.60
2019-03-08T06:32:08.192Z,23.60
2019-03-08T06:34:37.016Z,23.60
2019-03-08T06:37:05.840Z,23.80
2019-03-08T06:39:34.628Z,24.00
2019-03-08T06:42:03.673Z,23.60
2019-03-08T06:44:32.596Z,23.60
2019-03-08T06:47:01.453Z,23.60
2019-03-08T06:49:30.457Z,23.70
2019-03-08T06:52:00.906Z,23.20
2019-03-08T06:54:30.372Z,23.70
2019-03-08T06:56:59.588Z,23.40
2019-03-08T06:59:53.644Z,23.40
2019-03-08T07:02:23.119Z,23.70
2019-03-08T07:04:52.108Z,23.00
2019-03-08T07:07:20.988Z,22.80
2019-03-08T07:09:49.968Z,22.80
2019-03-08T07:12:18.860Z,23.50
2019-03-08T07:14:48.133Z,22.70
2019-03-08T07:17:17.041Z,22.70
2019-03-08T07:19:56.264Z,22.60
2019-03-08T07:23:02.348Z,22.00
2019-03-08T07:25:52.544Z,22.60
2019-03-08T07:28:35.740Z,22.70
2019-03-08T07:31:23.692Z,22.50
2019-03-08T07:33:59.445Z,22.80
2019-03-08T07:36:47.327Z,22.80
2019-03-08T07:39:30.255Z,21.90
2019-03-08T07:42:15.989Z,22.90
2019-03-08T07:45:12.050Z,20.90
2019-03-08T07:48:06.254Z,21.70
2019-03-08T07:50:50.048Z,21.70
2019-03-08T07:53:34.804Z,21.90
2019-03-08T07:56:10.340Z,21.60
2019-03-08T07:58:58.533Z,21.80
2019-03-08T08:01:45.445Z,21.60
2019-03-08T08:04:38.046Z,22.00
2019-03-08T08:07:29.198Z,22.70
2019-03-08T08:10:06.264Z,22.60
2019-03-08T08:13:03.508Z,22.70
2019-03-08T08:16:09.546Z,23.00
2019-03-08T08:18:52.295Z,23.50
2019-03-08T08:21:33.554Z,23.60
2019-03-08T08:24:17.215Z,23.60
2019-03-08T08:27:03.744Z,23.40
2019-03-08T08:29:46.120Z,23.60
2019-03-08T08:32:28.824Z,23.60
2019-03-08T08:35:07.348Z,23.50
2019-03-08T08:37:46.771Z,23.10
2019-03-08T08:40:37.864Z,22.90
2019-03-08T08:43:18.491Z,22.90
2019-03-08T08:46:00.970Z,23.40
2019-03-08T08:48:48.160Z,23.00
2019-03-08T08:51:22.813Z,22.50
2019-03-08T08:54:12.512Z,23.10
2019-03-08T08:56:56.223Z,23.10
2019-03-08T08:59:50.137Z,23.10
2019-03-08T09:02:37.107Z,23.30
2019-03-08T09:05:26.972Z,23.30
2019-03-08T09:08:13.580Z,24.20
2019-03-08T09:11:00.129Z,23.10
2019-03-08T09:13:34.628Z,23.20
2019-03-08T09:16:08.155Z,23.90
2019-03-08T09:19:05.436Z,24.00
2019-03-08T09:21:44.353Z,23.70
2019-03-08T09:24:31.152Z,23.40
2019-03-08T09:27:25.472Z,23.20
2019-03-08T09:30:07.488Z,23.60
2019-03-08T09:32:48.880Z,23.00
2019-03-08T09:35:23.448Z,23.30
2019-03-08T09:38:17.590Z,22.60
2019-03-08T09:41:05.598Z,23.10
2019-03-08T09:44:12.039Z,23.00
2019-03-08T09:46:49.232Z,22.80
2019-03-08T09:49:23.805Z,22.30
2019-03-08T09:52:14.214Z,22.40
2019-03-08T09:55:00.837Z,23.20
2019-03-08T09:57:39.932Z,23.20
2019-03-08T10:00:29.884Z,23.60
2019-03-08T10:03:33.241Z,24.10
2019-03-08T10:06:10.580Z,24.40
2019-03-08T10:08:48.076Z,24.40
2019-03-08T10:11:48.360Z,24.30
2019-03-08T10:14:28.071Z,25.10
2019-03-08T10:17:25.363Z,25.20
2019-03-08T10:20:12.779Z,25.10
2019-03-08T10:23:03.820Z,25.50
2019-03-08T10:25:43.648Z,26.00
2019-03-08T10:28:20.920Z,26.70
2019-03-08T10:30:58.842Z,26.90
2019-03-08T10:33:57.061Z,26.90
2019-03-08T10:36:57.317Z,27.70
2019-03-08T10:39:44.828Z,27.70
2019-03-08T10:42:35.012Z,28.10
2019-03-08T10:45:17.617Z,28.80
2019-03-08T10:48:00.195Z,29.20
2019-03-08T10:50:40.621Z,28.80
2019-03-08T10:53:44.168Z,29.20
2019-03-08T10:56:24.937Z,29.10
2019-03-08T10:59:11.084Z,28.60
2019-03-08T11:02:02.697Z,29.00
2019-03-08T11:04:42.612Z,28.00
2019-03-08T11:07:29.556Z,28.10
2019-03-08T11:10:16.425Z,28.70
2019-03-08T11:12:53.601Z,28.80
2019-03-08T11:15:41.659Z,28.00
2019-03-08T11:18:29.624Z,28.50
2019-03-08T11:21:16.388Z,28.60
2019-03-08T11:23:56.552Z,28.00
2019-03-08T11:26:41.405Z,28.00
2019-03-08T11:29:41.808Z,28.00
2019-03-08T11:32:35.860Z,27.50
2019-03-08T11:35:18.964Z,28.00
2019-03-08T11:38:06.931Z,28.00
2019-03-08T11:40:58.007Z,27.50
2019-03-08T11:43:56.410Z,27.50
2019-03-08T11:46:41.522Z,27.80
2019-03-08T11:49:21.896Z,27.60
2019-03-08T11:52:09.872Z,27.50
2019-03-08T11:55:10.096Z,27.10
2019-03-08T11:57:53.202Z,27.30
2019-03-08T12:00:40.062Z,27.20
2019-03-08T12:03:28.160Z,27.30
2019-03-08T12:06:06.249Z,26.60
2019-03-08T12:09:00.663Z,25.10
2019-03-08T12:11:49.299Z,24.20
2019-03-08T12:14:35.957Z,24.00
2019-03-08T12:17:29.599Z,24.10
2019-03-08T12:20:10.342Z,23.40
2019-03-08T12:23:01.348Z,22.30
2019-03-08T12:25:47.916Z,23.10
2019-03-08T12:28:51.740Z,22.70
2019-03-08T12:31:38.373Z,22.50
2019-03-08T12:34:29.987Z,21.60
2019-03-08T12:37:10.928Z,21.40
2019-03-08T12:39:50.520Z,20.70
2019-03-08T12:42:47.547Z,19.40
2019-03-08T12:45:40.496Z,19.60
2019-03-08T12:48:27.268Z,19.00
2019-03-08T12:51:03.859Z,19.40
2019-03-08T12:53:44.926Z,22.80
2019-03-08T12:56:24.872Z,24.30
2019-03-08T12:59:10.753Z,25.70
2019-03-08T13:02:04.766Z,26.10
2019-03-08T13:04:41.840Z,27.30
2019-03-08T13:07:28.558Z,26.30
2019-03-08T13:10:08.516Z,26.30
2019-03-08T13:12:37.479Z,25.80
2019-03-08T13:15:07.152Z,26.50
2019-03-08T13:17:36.069Z,25.20
2019-03-08T13:20:06.088Z,23.70
2019-03-08T13:22:35.171Z,23.90
2019-03-08T13:25:04.320Z,24.00
2019-03-08T13:27:33.292Z,23.30
2019-03-08T13:30:02.277Z,23.00
2019-03-08T13:32:31.336Z,23.30
2019-03-08T13:35:00.442Z,23.10
2019-03-08T13:37:29.412Z,21.90
2019-03-08T13:39:58.404Z,22.20
2019-03-08T13:42:27.656Z,21.80
2019-03-08T13:44:56.645Z,22.30
2019-03-08T13:47:25.635Z,22.20
2019-03-08T13:49:54.736Z,23.50
2019-03-08T13:52:23.820Z,24.60
2019-03-08T13:54:52.728Z,24.70
2019-03-08T13:57:21.957Z,25.20
2019-03-08T13:59:50.804Z,24.70
2019-03-08T14:02:20.168Z,24.70
2019-03-08T14:04:49.141Z,23.90
2019-03-08T14:07:18.041Z,21.60
2019-03-08T14:09:46.941Z,17.90
2019-03-08T14:12:15.956Z,16.10
2019-03-08T14:14:44.902Z,13.30
2019-03-08T14:17:13.942Z,12.80
2019-03-08T14:19:42.917Z,7.80
2019-03-08T14:22:11.898Z,7.50
2019-03-08T14:24:40.900Z,8.90
2019-03-08T14:27:10.213Z,10.00
2019-03-08T14:29:40.910Z,9.70
2019-03-08T14:32:13.972Z,9.30
2019-03-08T14:34:42.952Z,9.30
2019-03-08T14:37:12.033Z,11.10
2019-03-08T14:39:44.309Z,9.30
2019-03-08T14:42:17.457Z,8.50
2019-03-08T14:44:56.852Z,8.40
2019-03-08T14:48:05.980Z,4.60
2019-03-08T14:50:35.582Z,4.70
2019-03-08T14:53:05.308Z,6.10
2019-03-08T14:55:34.600Z,4.10
2019-03-08T14:58:03.738Z,5.30
2019-03-08T15:00:32.687Z,6.40
2019-03-08T15:03:01.623Z,6.70
2019-03-08T15:05:30.524Z,7.30
2019-03-08T15:07:59.828Z,5.10
2019-03-08T15:10:39.026Z,5.60
2019-03-08T15:13:00.989Z,6.10
2019-03-08T15:15:30.048Z,9.40
2019-03-08T15:17:59.048Z,7.30
2019-03-08T15:20:28.032Z,8.20
2019-03-08T15:22:57.006Z,8.70
2019-03-08T15:25:25.937Z,9.00
2019-03-08T15:27:54.879Z,9.60
2019-03-08T15:30:23.889Z,9.40
2019-03-08T15:32:52.893Z,9.50
2019-03-08T15:35:21.918Z,9.80
2019-03-08T15:37:50.884Z,9.20
2019-03-08T15:40:23.373Z,9.20
2019-03-08T15:42:52.785Z,9.30
2019-03-08T15:45:21.936Z,8.80
2019-03-08T15:47:50.885Z,9.20
2019-03-08T15:50:20.140Z,9.40
2019-03-08T15:52:51.264Z,8.90
2019-03-08T15:55:19.883Z,9.10
2019-03-08T15:57:48.864Z,8.20
2019-03-08T16:00:19.691Z,11.10
2019-03-08T16:02:49.089Z,10.70
2019-03-08T16:05:18.376Z,10.30
2019-03-08T16:07:47.446Z,10.00
2019-03-08T16:10:19.022Z,9.30
2019-03-08T16:12:47.500Z,9.00
2019-03-08T16:15:16.868Z,8.80
2019-03-08T16:17:46.243Z,9.00
2019-03-08T16:20:15.814Z,8.70
2019-03-08T16:22:44.842Z,8.50
2019-03-08T16:25:14.868Z,8.40
2019-03-08T16:27:45.208Z,7.60
2019-03-08T16:30:26.144Z,8.50
2019-03-08T16:33:04.068Z,9.10
2019-03-08T16:35:42.568Z,7.90
2019-03-08T16:38:30.347Z,8.20
2019-03-08T16:41:13.681Z,8.40
2019-03-08T16:44:13.856Z,8.60
2019-03-08T16:47:19.878Z,8.70
2019-03-08T16:50:08.112Z,8.80
2019-03-08T16:52:53.136Z,9.60
2019-03-08T16:55:39.420Z,9.80
2019-03-08T16:58:31.373Z,11.20
2019-03-08T17:01:16.753Z,8.90
2019-03-08T17:04:23.251Z,9.80
2019-03-08T17:07:03.075Z,8.80
2019-03-08T17:09:43.668Z,9.80
2019-03-08T17:12:30.377Z,9.90
2019-03-08T17:15:12.645Z,9.90
2019-03-08T17:17:49.544Z,9.00
2019-03-08T17:20:43.460Z,9.00
2019-03-08T17:23:34.213Z,8.70
2019-03-08T17:26:21.146Z,7.90
2019-03-08T17:29:12.660Z,8.40
2019-03-08T17:31:53.021Z,8.00
2019-03-08T17:34:45.612Z,8.10
2019-03-08T17:37:49.040Z,8.90
2019-03-08T17:40:39.656Z,7.40
2019-03-08T17:43:18.681Z,6.80
2019-03-08T17:45:55.969Z,6.80
2019-03-08T17:48:42.881Z,6.40
2019-03-08T17:51:30.001Z,5.70
2019-03-08T17:54:16.260Z,5.60
2019-03-08T17:56:55.620Z,6.10
2019-03-08T17:59:46.458Z,5.50
2019-03-08T18:02:37.275Z,6.30
2019-03-08T18:05:11.987Z,6.20
2019-03-08T18:07:50.404Z,6.60
2019-03-08T18:10:38.356Z,5.90
2019-03-08T18:13:24.830Z,5.70
2019-03-08T18:16:15.940Z,6.20
2019-03-08T18:18:59.601Z,7.10
2019-03-08T18:21:56.528Z,6.40
2019-03-08T18:24:43.268Z,7.30
2019-03-08T18:29:57.604Z,8.50
2019-03-08T18:32:44.128Z,9.50
2019-03-08T18:35:21.776Z,8.40
2019-03-08T18:38:19.433Z,9.10
2019-03-08T18:41:19.437Z,8.10
2019-03-08T18:44:07.424Z,7.70
2019-03-08T18:46:49.395Z,7.60
2019-03-08T18:49:35.999Z,7.60
2019-03-08T18:52:23.474Z,7.40
2019-03-08T18:55:10.360Z,8.00
2019-03-08T18:58:02.689Z,8.50
2019-03-08T19:00:40.776Z,8.80
2019-03-08T19:03:31.188Z,8.40
2019-03-08T19:06:19.132Z,8.50
2019-03-08T19:09:08.088Z,8.40
2019-03-08T19:11:45.679Z,9.30
2019-03-08T19:14:22.461Z,8.90
2019-03-08T19:17:09.995Z,9.60
2019-03-08T19:20:01.515Z,10.40
2019-03-08T19:22:35.905Z,9.90
2019-03-08T19:25:24.140Z,9.30
2019-03-08T19:28:03.252Z,9.60
2019-03-08T19:30:49.616Z,9.70
2019-03-08T19:33:43.732Z,9.80
2019-03-08T19:36:36.011Z,9.70
2019-03-08T19:39:23.036Z,10.20
2019-03-08T19:42:23.080Z,10.00
2019-03-08T19:45:13.861Z,10.00
2019-03-08T19:47:52.000Z,10.10
2019-03-08T19:50:37.428Z,10.30
2019-03-08T19:53:15.848Z,10.60
2019-03-08T19:56:04.218Z,10.50
2019-03-08T19:59:01.040Z,11.00
2019-03-08T20:01:52.040Z,10.70
2019-03-08T20:04:36.176Z,10.80
2019-03-08T20:07:24.724Z,10.50
2019-03-08T20:10:02.560Z,10.30
2019-03-08T20:12:51.416Z,10.80
2019-03-08T20:15:39.604Z,11.20
2019-03-08T20:18:18.010Z,11.60
2019-03-08T20:21:00.405Z,10.90
2019-03-08T20:23:38.828Z,10.70
2019-03-08T20:26:18.763Z,10.60
2019-03-08T20:29:19.040Z,10.50
2019-03-08T20:32:09.694Z,11.70
2019-03-08T20:34:48.809Z,11.70
2019-03-08T20:37:28.260Z,12.60
2019-03-08T20:40:23.229Z,12.40
2019-03-08T20:43:00.495Z,12.50
2019-03-08T20:45:36.964Z,12.10
2019-03-08T20:48:06.380Z,12.20
2019-03-08T20:50:35.838Z,12.40
2019-03-08T20:53:05.412Z,12.00
2019-03-08T20:55:34.458Z,12.50
2019-03-08T20:58:03.469Z,12.50
2019-03-08T21:00:32.454Z,12.60
2019-03-08T21:03:01.448Z,12.40
2019-03-08T21:05:30.885Z,14.30
2019-03-08T21:08:00.157Z,13.00
2019-03-08T21:10:29.561Z,13.00
2019-03-08T21:12:58.564Z,13.10
2019-03-08T21:15:27.605Z,12.60
2019-03-08T21:17:56.676Z,12.40
2019-03-08T21:20:25.628Z,12.40
2019-03-08T21:22:54.612Z,12.40
2019-03-08T21:25:23.634Z,12.50
2019-03-08T21:27:52.501Z,13.10
2019-03-08T21:30:21.852Z,12.40
2019-03-08T21:32:50.876Z,12.40
2019-03-08T21:35:19.864Z,12.50
2019-03-08T21:37:48.855Z,12.00
2019-03-08T21:40:17.888Z,11.40
2019-03-08T21:42:48.802Z,11.00
2019-03-08T21:45:17.784Z,10.20
2019-03-08T21:47:47.292Z,10.20
2019-03-08T21:50:17.032Z,11.30
2019-03-08T21:52:45.969Z,9.30
2019-03-08T21:55:15.164Z,9.30
2019-03-08T21:57:44.252Z,9.50
2019-03-08T22:00:17.684Z,9.30
2019-03-08T22:02:49.644Z,9.00
2019-03-08T22:05:25.600Z,9.30
2019-03-08T22:07:54.588Z,9.30
2019-03-08T22:10:31.977Z,8.90
2019-03-08T22:13:01.083Z,9.20
2019-03-08T22:15:31.193Z,8.80
2019-03-08T22:18:00.572Z,8.80
2019-03-08T22:20:29.464Z,8.80
2019-03-08T22:22:58.289Z,8.80
2019-03-08T22:25:27.172Z,8.90
2019-03-08T22:27:56.584Z,8.30
2019-03-08T22:30:25.512Z,8.80
2019-03-08T22:32:54.693Z,8.90
2019-03-08T22:35:23.524Z,8.90
2019-03-08T22:37:52.928Z,8.90
2019-03-08T22:40:21.952Z,8.90
2019-03-08T22:42:50.980Z,8.90
2019-03-08T22:45:19.768Z,9.00
2019-03-08T22:47:48.825Z,9.00
2019-03-08T22:50:18.136Z,9.00
2019-03-08T22:52:47.159Z,9.20
2019-03-08T22:55:16.232Z,9.40
2019-03-08T22:57:45.275Z,9.50
2019-03-08T23:01:03.472Z,9.70
2019-03-08T23:03:32.577Z,9.80
2019-03-08T23:06:01.850Z,10.10
2019-03-08T23:08:31.632Z,10.00
2019-03-08T23:11:00.600Z,10.00
2019-03-08T23:13:29.687Z,10.10
2019-03-08T23:15:58.773Z,9.90
2019-03-08T23:18:27.668Z,10.20
2019-03-08T23:20:57.078Z,10.10
2019-03-08T23:23:26.358Z,10.20
2019-03-08T23:25:55.397Z,10.10
2019-03-08T23:28:49.272Z,10.30
2019-03-08T23:31:28.528Z,10.50
2019-03-08T23:33:57.428Z,10.40
2019-03-08T23:36:26.340Z,10.40
2019-03-08T23:38:55.237Z,10.50
2019-03-08T23:41:24.243Z,10.50
2019-03-08T23:43:53.147Z,10.50
2019-03-08T23:46:21.999Z,10.70
2019-03-08T23:48:51.084Z,10.70
2019-03-08T23:51:20.574Z,10.60
2019-03-08T23:53:49.569Z,10.40
2019-03-08T23:56:18.495Z,10.50
2019-03-08T23:58:47.679Z,10.50
